createdAt,value
2022-12-14T00:01:38.008Z,17.83
2022-12-14T00:04:05.043Z,17.45
2022-12-14T00:06:32.883Z,16.65
2022-12-14T00:09:04.379Z,16.90
2022-12-14T00:11:33.468Z,16.00
2022-12-14T00:14:01.861Z,16.58
2022-12-14T00:16:30.808Z,16.67
2022-12-14T00:18:59.002Z,14.88
2022-12-14T00:21:26.913Z,15.98
2022-12-14T00:23:55.075Z,15.32
2022-12-14T00:26:27.584Z,14.93
2022-12-14T00:28:55.809Z,15.10
2022-12-14T00:31:23.644Z,14.68
2022-12-14T00:33:51.259Z,14.90
2022-12-14T00:36:18.364Z,13.60
2022-12-14T00:38:45.451Z,14.75
2022-12-14T00:41:12.816Z,13.82
2022-12-14T00:43:40.197Z,13.95
2022-12-14T00:46:07.369Z,13.73
2022-12-14T00:48:34.677Z,13.35
2022-12-14T00:51:01.667Z,12.95
2022-12-14T00:53:28.559Z,13.75
2022-12-14T00:55:55.629Z,12.90
2022-12-14T00:58:24.313Z,12.68
2022-12-14T01:01:03.058Z,12.93
2022-12-14T01:03:30.634Z,12.85
2022-12-14T01:05:57.938Z,12.40
2022-12-14T01:08:25.555Z,12.45
2022-12-14T01:10:53.564Z,11.77
2022-12-14T01:13:20.505Z,11.93
2022-12-14T01:15:47.492Z,12.27
2022-12-14T01:18:14.507Z,11.45
2022-12-14T01:20:41.424Z,11.88
2022-12-14T01:23:08.386Z,11.15
2022-12-14T01:25:35.315Z,11.57
2022-12-14T01:28:02.266Z,11.10
2022-12-14T01:30:29.398Z,11.75
2022-12-14T01:32:56.308Z,10.95
2022-12-14T01:35:23.239Z,11.40
2022-12-14T01:37:50.226Z,10.80
2022-12-14T01:40:17.939Z,10.57
2022-12-14T01:42:44.967Z,10.05
2022-12-14T01:45:18.656Z,10.05
2022-12-14T01:47:57.082Z,10.23
2022-12-14T01:50:29.934Z,10.65
2022-12-14T01:53:02.133Z,10.32
2022-12-14T01:55:50.552Z,10.65
2022-12-14T01:58:20.274Z,9.52
2022-12-14T02:03:25.140Z,9.93
2022-12-14T02:05:55.873Z,9.55
2022-12-14T02:10:52.206Z,9.57
2022-12-14T02:13:28.688Z,9.02
2022-12-14T02:15:55.941Z,9.20
2022-12-14T02:18:25.512Z,9.02
2022-12-14T02:21:10.885Z,10.05
2022-12-14T02:24:02.948Z,8.80
2022-12-14T02:27:12.017Z,9.07
2022-12-14T02:29:54.000Z,8.90
2022-12-14T02:32:35.585Z,8.35
2022-12-14T02:35:20.148Z,9.05
2022-12-14T02:38:05.095Z,8.60
2022-12-14T02:40:38.580Z,8.30
2022-12-14T02:43:27.617Z,9.23
2022-12-14T02:46:13.166Z,7.88
2022-12-14T02:48:44.294Z,8.02
2022-12-14T02:51:12.287Z,9.10
2022-12-14T02:54:16.159Z,8.43
2022-12-14T02:56:52.022Z,8.45
2022-12-14T02:59:19.093Z,8.45
2022-12-14T03:01:47.350Z,8.70
2022-12-14T03:04:15.405Z,7.95
2022-12-14T03:07:05.763Z,8.30
2022-12-14T03:09:33.113Z,7.35
2022-12-14T03:12:09.352Z,8.40
2022-12-14T03:14:45.330Z,7.78
2022-12-14T03:17:19.792Z,7.90
2022-12-14T03:19:54.335Z,10.27
2022-12-14T03:22:25.973Z,7.53
2022-12-14T03:24:58.389Z,7.65
2022-12-14T03:27:30.140Z,6.90
2022-12-14T03:30:00.656Z,7.50
2022-12-14T03:32:29.999Z,7.65
2022-12-14T03:34:59.980Z,7.40
2022-12-14T03:37:42.414Z,6.95
2022-12-14T03:40:11.219Z,7.70
2022-12-14T03:42:56.816Z,7.23
2022-12-14T03:45:30.033Z,6.88
2022-12-14T03:48:15.467Z,6.88
2022-12-14T03:50:44.235Z,6.65
2022-12-14T03:53:19.281Z,7.13
2022-12-14T03:55:52.379Z,7.05
2022-12-14T03:58:30.916Z,6.95
2022-12-14T04:01:36.823Z,6.53
2022-12-14T04:04:05.066Z,6.78
2022-12-14T04:06:45.681Z,7.25
2022-12-14T04:09:23.606Z,7.00
2022-12-14T04:12:17.048Z,6.78
2022-12-14T04:15:08.445Z,6.57
2022-12-14T04:17:55.744Z,6.80
2022-12-14T04:20:32.859Z,6.63
2022-12-14T04:23:05.534Z,6.18
2022-12-14T04:25:53.989Z,6.72
2022-12-14T04:28:43.906Z,6.07
2022-12-14T04:31:14.465Z,6.75
2022-12-14T04:33:48.125Z,5.55
2022-12-14T04:36:18.607Z,6.75
2022-12-14T04:38:47.110Z,6.22
2022-12-14T04:41:15.688Z,6.35
2022-12-14T04:43:44.665Z,6.18
2022-12-14T04:46:18.569Z,6.28
2022-12-14T04:49:01.378Z,6.07
2022-12-14T04:51:47.301Z,6.05
2022-12-14T04:54:25.749Z,6.32
2022-12-14T04:57:12.208Z,5.55
2022-12-14T04:59:41.485Z,5.83
2022-12-14T05:02:09.954Z,5.18
2022-12-14T05:04:42.612Z,5.28
2022-12-14T05:07:32.383Z,5.55
2022-12-14T05:10:05.502Z,5.32
2022-12-14T05:13:05.909Z,5.78
2022-12-14T05:15:42.992Z,5.30
2022-12-14T05:18:10.656Z,4.90
2022-12-14T05:20:37.521Z,5.63
2022-12-14T05:25:31.627Z,5.57
2022-12-14T05:27:58.619Z,5.10
2022-12-14T05:30:25.629Z,5.15
2022-12-14T05:32:53.303Z,5.30
2022-12-14T05:35:20.541Z,5.28
2022-12-14T05:37:49.361Z,5.57
2022-12-14T05:42:46.005Z,5.35
2022-12-14T05:45:15.934Z,4.90
2022-12-14T05:47:42.820Z,5.00
2022-12-14T05:50:10.071Z,5.25
2022-12-14T05:52:36.981Z,4.88
2022-12-14T05:55:04.979Z,6.00
2022-12-14T05:57:32.337Z,5.20
2022-12-14T06:00:00.361Z,5.00
2022-12-14T06:02:27.463Z,4.60
2022-12-14T06:04:54.491Z,5.25
2022-12-14T06:07:26.085Z,5.07
2022-12-14T06:09:54.938Z,4.97
2022-12-14T06:12:21.915Z,5.10
2022-12-14T06:14:48.846Z,4.45
2022-12-14T06:17:15.768Z,4.93
2022-12-14T06:19:43.251Z,5.05
2022-12-14T06:22:17.210Z,4.80
2022-12-14T06:24:44.158Z,4.50
2022-12-14T06:27:11.081Z,5.07
2022-12-14T06:29:37.997Z,5.22
2022-12-14T06:32:05.124Z,4.25
2022-12-14T06:34:36.898Z,5.43
2022-12-14T06:37:06.428Z,13.93
2022-12-14T06:39:33.472Z,47.58
2022-12-14T06:42:00.375Z,58.50
2022-12-14T06:44:27.399Z,56.65
2022-12-14T06:46:54.374Z,52.70
2022-12-14T06:49:21.983Z,47.72
2022-12-14T06:51:49.357Z,42.90
2022-12-14T06:54:17.494Z,38.65
2022-12-14T06:56:45.903Z,36.35
2022-12-14T06:59:15.552Z,31.42
2022-12-14T07:01:42.655Z,30.80
2022-12-14T07:04:10.159Z,26.80
2022-12-14T07:06:39.881Z,24.70
2022-12-14T07:11:34.592Z,22.95
2022-12-14T07:14:03.487Z,21.17
2022-12-14T07:16:30.644Z,19.77
2022-12-14T07:18:58.124Z,20.35
2022-12-14T07:21:26.124Z,17.95
2022-12-14T07:23:53.460Z,19.08
2022-12-14T07:26:23.270Z,17.23
2022-12-14T07:28:51.415Z,15.88
2022-12-14T07:31:21.313Z,16.52
2022-12-14T07:33:49.016Z,17.13
2022-12-14T07:36:20.262Z,15.68
2022-12-14T07:38:48.962Z,15.02
2022-12-14T07:41:28.072Z,14.90
2022-12-14T07:43:56.044Z,14.65
2022-12-14T07:46:27.219Z,14.23
2022-12-14T07:48:56.047Z,13.32
2022-12-14T07:51:25.720Z,12.73
2022-12-14T07:56:25.503Z,13.50
2022-12-14T07:58:54.188Z,13.10
2022-12-14T08:01:27.262Z,12.63
2022-12-14T08:03:59.766Z,13.10
2022-12-14T08:06:28.385Z,13.10
2022-12-14T08:08:55.659Z,11.85
2022-12-14T08:11:22.922Z,11.70
2022-12-14T08:14:01.943Z,11.77
2022-12-14T08:16:29.567Z,11.32
2022-12-14T08:18:57.944Z,11.70
2022-12-14T08:21:25.885Z,11.27
2022-12-14T08:23:53.713Z,10.75
2022-12-14T08:26:21.458Z,11.13
2022-12-14T08:28:49.281Z,10.50
2022-12-14T08:31:21.186Z,10.98
2022-12-14T08:33:48.579Z,11.50
2022-12-14T08:36:21.494Z,10.48
2022-12-14T08:38:59.474Z,10.63
2022-12-14T08:41:27.221Z,9.65
2022-12-14T08:43:56.461Z,10.02
2022-12-14T08:46:24.182Z,10.05
2022-12-14T08:48:55.012Z,9.18
2022-12-14T08:51:23.361Z,9.65
2022-12-14T08:53:51.094Z,10.13
2022-12-14T08:56:22.606Z,10.57
2022-12-14T08:58:49.613Z,10.07
2022-12-14T09:01:25.727Z,9.30
2022-12-14T09:03:57.180Z,10.18
2022-12-14T09:06:27.795Z,9.70
2022-12-14T09:08:55.638Z,9.43
2022-12-14T09:11:22.855Z,9.65
2022-12-14T09:13:53.830Z,8.80
2022-12-14T09:16:21.924Z,10.75
2022-12-14T09:18:49.615Z,10.80
2022-12-14T09:21:18.120Z,8.88
2022-12-14T09:23:45.580Z,8.90
2022-12-14T09:26:20.942Z,9.48
2022-12-14T09:28:53.329Z,8.90
2022-12-14T09:31:22.631Z,9.65
2022-12-14T09:33:49.663Z,10.00
2022-12-14T09:36:19.364Z,9.23
2022-12-14T09:41:40.963Z,9.45
2022-12-14T09:44:21.670Z,8.75
2022-12-14T09:47:21.140Z,9.50
2022-12-14T09:49:53.812Z,9.27
2022-12-14T09:52:40.184Z,10.30
2022-12-14T09:55:19.266Z,10.30
2022-12-14T09:57:48.098Z,10.02
2022-12-14T10:00:20.661Z,11.57
2022-12-14T10:03:12.494Z,9.80
2022-12-14T10:06:02.225Z,9.00
2022-12-14T10:08:41.833Z,13.40
2022-12-14T10:11:34.300Z,10.00
2022-12-14T10:14:20.171Z,9.00
2022-12-14T10:17:14.482Z,8.07
2022-12-14T10:19:57.577Z,9.77
2022-12-14T10:22:40.066Z,10.05
2022-12-14T10:25:25.153Z,7.80
2022-12-14T10:28:10.735Z,8.68
2022-12-14T10:30:38.366Z,8.07
2022-12-14T10:33:19.488Z,8.20
2022-12-14T10:36:07.045Z,8.02
2022-12-14T10:38:39.238Z,7.40
2022-12-14T10:41:29.586Z,7.45
2022-12-14T10:44:11.882Z,7.47
2022-12-14T10:46:53.876Z,7.22
2022-12-14T10:49:33.060Z,8.15
2022-12-14T10:52:12.372Z,6.65
2022-12-14T10:54:45.255Z,6.32
2022-12-14T10:57:23.359Z,6.72
2022-12-14T11:00:07.289Z,6.22
2022-12-14T11:02:41.833Z,6.22
2022-12-14T11:05:36.629Z,7.00
2022-12-14T11:08:07.373Z,6.57
2022-12-14T11:10:41.779Z,6.88
2022-12-14T11:13:19.838Z,6.43
2022-12-14T11:15:51.104Z,6.47
2022-12-14T11:18:18.172Z,6.78
2022-12-14T11:20:59.824Z,6.13
2022-12-14T11:23:29.302Z,6.53
2022-12-14T11:25:59.304Z,8.10
2022-12-14T11:28:58.489Z,6.18
2022-12-14T11:31:41.270Z,6.47
2022-12-14T11:34:32.346Z,6.28
2022-12-14T11:37:22.385Z,6.18
2022-12-14T11:39:51.719Z,5.93
2022-12-14T11:42:20.504Z,5.78
2022-12-14T11:44:49.445Z,7.17
2022-12-14T11:47:22.367Z,6.05
2022-12-14T11:49:57.901Z,6.97
2022-12-14T11:52:27.111Z,5.78
2022-12-14T11:54:56.894Z,6.20
2022-12-14T11:57:35.816Z,5.80
2022-12-14T12:00:46.817Z,5.95
2022-12-14T12:03:28.329Z,5.63
2022-12-14T12:06:00.574Z,6.07
2022-12-14T12:08:31.205Z,5.60
2022-12-14T12:11:02.221Z,5.60
2022-12-14T12:13:35.132Z,5.68
2022-12-14T12:16:06.380Z,5.78
2022-12-14T12:18:58.247Z,6.00
2022-12-14T12:21:28.468Z,8.35
2022-12-14T12:24:26.139Z,5.10
2022-12-14T12:27:02.693Z,5.50
2022-12-14T12:29:52.643Z,5.55
2022-12-14T12:32:31.971Z,5.20
2022-12-14T12:35:17.139Z,5.60
2022-12-14T12:37:49.288Z,58.45
2022-12-14T12:40:33.096Z,59.47
2022-12-14T12:45:59.850Z,49.30
2022-12-14T12:48:40.794Z,47.67
2022-12-14T12:51:14.745Z,42.00
2022-12-14T12:53:44.978Z,39.63
2022-12-14T12:56:21.977Z,37.15
2022-12-14T12:58:52.827Z,54.83
2022-12-14T13:01:36.220Z,85.22
2022-12-14T13:04:10.509Z,95.82
2022-12-14T13:06:45.135Z,92.88
2022-12-14T13:09:39.902Z,81.13
2022-12-14T13:12:12.373Z,73.10
2022-12-14T13:14:43.259Z,68.80
2022-12-14T13:17:45.747Z,62.20
2022-12-14T13:20:28.826Z,58.38
2022-12-14T13:22:59.485Z,54.28
2022-12-14T13:26:05.644Z,49.33
2022-12-14T13:28:45.431Z,48.53
2022-12-14T13:31:27.463Z,43.38
2022-12-14T13:34:17.842Z,42.88
2022-12-14T13:37:14.050Z,42.35
2022-12-14T13:40:18.552Z,37.28
2022-12-14T13:43:01.068Z,67.75
2022-12-14T13:45:38.395Z,74.95
2022-12-14T13:48:09.242Z,75.55
2022-12-14T13:50:42.359Z,70.90
2022-12-14T13:53:27.478Z,65.30
2022-12-14T13:55:58.816Z,60.13
2022-12-14T13:58:28.723Z,56.88
2022-12-14T14:01:16.098Z,52.58
2022-12-14T14:04:04.696Z,51.35
2022-12-14T14:06:36.229Z,48.33
2022-12-14T14:09:28.760Z,47.20
2022-12-14T14:11:58.635Z,42.42
2022-12-14T14:14:49.741Z,40.17
2022-12-14T14:17:49.723Z,37.75
2022-12-14T14:20:31.994Z,38.30
2022-12-14T14:23:15.447Z,35.10
2022-12-14T14:28:39.859Z,33.30
2022-12-14T14:31:07.720Z,32.25
2022-12-14T14:33:50.590Z,30.77
2022-12-14T14:36:30.968Z,31.50
2022-12-14T14:38:59.560Z,28.42
2022-12-14T14:41:34.362Z,29.90
2022-12-14T14:44:04.544Z,27.55
2022-12-14T14:46:46.890Z,27.00
2022-12-14T14:49:26.119Z,27.25
2022-12-14T14:51:53.021Z,25.25
2022-12-14T14:54:54.050Z,25.45
2022-12-14T14:57:33.427Z,23.80
2022-12-14T15:00:05.301Z,23.85
2022-12-14T15:02:34.137Z,24.02
2022-12-14T15:05:32.909Z,24.13
2022-12-14T15:07:48.851Z,23.20
2022-12-14T15:10:35.815Z,22.95
2022-12-14T15:13:06.517Z,22.60
2022-12-14T15:15:41.787Z,22.65
2022-12-14T15:18:31.587Z,38.85
2022-12-14T15:21:04.922Z,81.28
2022-12-14T15:23:39.526Z,83.97
2022-12-14T15:26:17.277Z,77.70
2022-12-14T15:28:50.512Z,69.68
2022-12-14T15:31:18.660Z,64.13
2022-12-14T15:33:47.988Z,58.00
2022-12-14T15:36:17.629Z,53.58
2022-12-14T15:41:20.574Z,44.42
2022-12-14T15:43:50.182Z,44.33
2022-12-14T15:49:00.061Z,39.38
2022-12-14T15:51:49.659Z,39.30
2022-12-14T15:54:20.280Z,35.97
2022-12-14T15:56:49.374Z,34.55
2022-12-14T15:59:31.176Z,31.10
2022-12-14T16:02:15.222Z,29.55
2022-12-14T16:04:42.894Z,28.98
2022-12-14T16:07:18.762Z,28.42
2022-12-14T16:09:52.454Z,27.90
2022-12-14T16:12:46.484Z,27.10
2022-12-14T16:15:24.279Z,26.10
2022-12-14T16:17:57.507Z,27.33
2022-12-14T16:20:31.926Z,25.52
2022-12-14T16:23:03.216Z,24.80
2022-12-14T16:25:31.670Z,24.65
2022-12-14T16:28:36.113Z,24.80
2022-12-14T16:31:06.685Z,23.77
2022-12-14T16:33:35.337Z,22.60
2022-12-14T16:36:06.884Z,22.70
2022-12-14T16:38:40.505Z,23.08
2022-12-14T16:41:07.665Z,21.98
2022-12-14T16:43:40.211Z,22.15
2022-12-14T16:46:13.511Z,20.77
2022-12-14T16:48:43.277Z,20.92
2022-12-14T16:51:32.993Z,21.63
2022-12-14T16:54:31.234Z,21.02
2022-12-14T16:57:01.851Z,21.08
2022-12-14T16:59:30.722Z,20.70
2022-12-14T17:01:58.492Z,19.88
2022-12-14T17:04:33.089Z,21.20
2022-12-14T17:07:00.469Z,19.83
2022-12-14T17:09:30.168Z,19.35
2022-12-14T17:14:28.095Z,19.17
2022-12-14T17:17:01.488Z,18.58
2022-12-14T17:19:38.611Z,19.15
2022-12-14T17:22:19.581Z,19.23
2022-12-14T17:24:46.459Z,18.60
2022-12-14T17:27:16.845Z,17.42
2022-12-14T17:29:43.841Z,18.50
2022-12-14T17:32:13.451Z,17.83
2022-12-14T17:34:40.346Z,18.27
2022-12-14T17:37:16.063Z,17.27
2022-12-14T17:39:42.977Z,19.08
2022-12-14T17:42:12.184Z,19.63
2022-12-14T17:44:40.323Z,19.05
2022-12-14T17:47:07.780Z,19.13
2022-12-14T17:49:34.629Z,19.08
2022-12-14T17:52:07.399Z,19.65
2022-12-14T17:54:34.529Z,20.08
2022-12-14T17:57:01.455Z,17.48
2022-12-14T17:59:28.427Z,20.40
2022-12-14T18:01:55.436Z,18.92
2022-12-14T18:04:22.451Z,18.25
2022-12-14T18:06:49.340Z,18.40
2022-12-14T18:09:18.495Z,17.15
2022-12-14T18:12:20.974Z,17.00
2022-12-14T18:14:32.211Z,17.80
2022-12-14T18:17:01.054Z,17.73
2022-12-14T18:19:29.895Z,17.63
2022-12-14T18:21:56.934Z,15.50
2022-12-14T18:24:26.079Z,15.77
2022-12-14T18:26:53.297Z,16.98
2022-12-14T18:29:20.842Z,16.42
2022-12-14T18:31:49.837Z,16.30
2022-12-14T18:34:17.114Z,16.27
2022-12-14T18:36:44.201Z,16.02
2022-12-14T18:39:11.064Z,16.00
2022-12-14T18:41:37.938Z,16.52
2022-12-14T18:44:05.052Z,16.30
2022-12-14T18:46:31.968Z,16.60
2022-12-14T18:48:58.906Z,15.93
2022-12-14T18:51:27.006Z,16.85
2022-12-14T18:53:55.402Z,15.77
2022-12-14T18:56:23.400Z,15.43
2022-12-14T18:58:50.776Z,16.25
2022-12-14T19:01:22.089Z,15.90
2022-12-14T19:03:49.417Z,15.38
2022-12-14T19:09:05.798Z,149.70
2022-12-14T19:11:35.975Z,137.70
2022-12-14T19:14:03.078Z,125.05
2022-12-14T19:16:30.332Z,117.13
2022-12-14T19:18:57.464Z,108.72
2022-12-14T19:21:26.303Z,102.00
2022-12-14T19:23:53.389Z,96.25
2022-12-14T19:26:21.170Z,90.13
2022-12-14T19:28:48.098Z,84.80
2022-12-14T19:31:15.100Z,81.90
2022-12-14T19:33:42.093Z,153.45
2022-12-14T19:36:09.441Z,136.10
2022-12-14T19:38:37.275Z,131.85
2022-12-14T19:41:10.547Z,131.65
2022-12-14T19:43:37.621Z,124.80
2022-12-14T19:46:08.913Z,125.20
2022-12-14T19:48:36.392Z,121.88
2022-12-14T19:51:04.931Z,118.78
2022-12-14T19:53:33.620Z,112.72
2022-12-14T19:56:00.911Z,101.90
2022-12-14T19:58:28.535Z,97.30
2022-12-14T20:00:55.533Z,91.47
2022-12-14T20:03:22.604Z,87.97
2022-12-14T20:05:55.028Z,79.13
2022-12-14T20:08:22.794Z,72.63
2022-12-14T20:10:50.427Z,67.07
2022-12-14T20:13:17.553Z,63.17
2022-12-14T20:15:51.865Z,56.78
2022-12-14T20:18:19.877Z,54.28
2022-12-14T20:20:47.664Z,50.80
2022-12-14T20:23:18.061Z,48.85
2022-12-14T20:25:45.047Z,43.45
2022-12-14T20:28:12.093Z,39.33
2022-12-14T20:30:45.884Z,40.72
2022-12-14T20:33:13.482Z,40.22
2022-12-14T20:35:40.436Z,40.22
2022-12-14T20:38:07.382Z,36.88
2022-12-14T20:40:38.435Z,36.78
2022-12-14T20:43:07.014Z,35.40
2022-12-14T20:45:42.082Z,35.83
2022-12-14T20:48:09.210Z,35.30
2022-12-14T20:50:41.763Z,33.88
2022-12-14T20:53:09.278Z,33.67
2022-12-14T20:55:36.298Z,32.03
2022-12-14T20:58:03.190Z,30.55
2022-12-14T21:00:30.496Z,30.48
2022-12-14T21:02:57.722Z,30.45
2022-12-14T21:05:25.227Z,29.75
2022-12-14T21:07:52.132Z,30.85
2022-12-14T21:10:19.138Z,29.60
2022-12-14T21:12:48.389Z,28.65
2022-12-14T21:15:15.399Z,29.30
2022-12-14T21:17:42.245Z,29.98
2022-12-14T21:20:11.507Z,30.10
2022-12-14T21:22:38.548Z,29.05
2022-12-14T21:25:06.897Z,27.50
2022-12-14T21:27:38.270Z,27.77
2022-12-14T21:30:07.266Z,27.70
2022-12-14T21:32:36.032Z,28.57
2022-12-14T21:35:03.442Z,27.90
2022-12-14T21:37:30.325Z,26.30
2022-12-14T21:39:57.167Z,27.35
2022-12-14T21:42:24.296Z,26.42
2022-12-14T21:44:52.392Z,26.60
2022-12-14T21:47:20.472Z,25.35
2022-12-14T21:49:48.026Z,25.20
2022-12-14T21:52:17.699Z,25.95
2022-12-14T21:57:34.498Z,48.00
2022-12-14T22:00:02.143Z,82.93
2022-12-14T22:02:29.623Z,101.45
2022-12-14T22:04:56.729Z,107.28
2022-12-14T22:07:30.588Z,99.38
2022-12-14T22:09:57.547Z,91.57
2022-12-14T22:12:24.546Z,85.68
2022-12-14T22:14:51.422Z,78.70
2022-12-14T22:17:18.391Z,68.85
2022-12-14T22:19:45.263Z,61.22
2022-12-14T22:22:15.999Z,60.15
2022-12-14T22:24:43.540Z,55.75
2022-12-14T22:27:13.675Z,51.65
2022-12-14T22:29:40.533Z,49.30
2022-12-14T22:32:08.464Z,47.67
2022-12-14T22:34:35.450Z,46.10
2022-12-14T22:37:02.295Z,44.47
2022-12-14T22:39:29.210Z,43.42
2022-12-14T22:41:56.698Z,44.00
2022-12-14T22:44:23.576Z,39.83
2022-12-14T22:46:50.454Z,39.63
2022-12-14T22:49:19.182Z,40.10
2022-12-14T22:51:46.175Z,36.87
2022-12-14T22:56:57.339Z,35.78
2022-12-14T22:59:32.794Z,34.90
2022-12-14T23:01:59.980Z,35.47
2022-12-14T23:04:27.030Z,35.20
2022-12-14T23:06:55.027Z,33.72
2022-12-14T23:09:40.430Z,33.75
2022-12-14T23:12:25.704Z,32.45
2022-12-14T23:15:11.260Z,31.55
2022-12-14T23:17:56.538Z,32.97
2022-12-14T23:20:41.878Z,31.75
2022-12-14T23:23:27.909Z,31.00
2022-12-14T23:26:13.984Z,31.05
2022-12-14T23:28:59.241Z,30.20
2022-12-14T23:31:44.716Z,29.92
2022-12-14T23:34:30.106Z,29.48
2022-12-14T23:37:20.064Z,29.75
2022-12-14T23:40:06.630Z,28.08
2022-12-14T23:42:51.953Z,29.45
2022-12-14T23:45:37.485Z,27.23
2022-12-14T23:48:22.840Z,27.73
2022-12-14T23:51:08.493Z,27.92
2022-12-14T23:53:53.822Z,26.48
2022-12-14T23:56:39.217Z,26.90
2022-12-14T23:59:29.823Z,27.90
